sensor_id;sensor_type;location;lat;lon;timestamp;P1;durP1;ratioP1;P2;durP2;ratioP2
71513;SDS011;59335;46.652;21.272;2024-02-26T00:00:25;12.07;;;7.28;;
71513;SDS011;59335;46.652;21.272;2024-02-26T00:03:28;13.27;;;7.17;;
71513;SDS011;59335;46.652;21.272;2024-02-26T00:06:31;12.25;;;7.10;;
71513;SDS011;59335;46.652;21.272;2024-02-26T00:09:34;11.40;;;7.25;;
71513;SDS011;59335;46.652;21.272;2024-02-26T00:12:38;12.77;;;7.03;;
71513;SDS011;59335;46.652;21.272;2024-02-26T00:15:42;11.68;;;6.72;;
71513;SDS011;59335;46.652;21.272;2024-02-26T00:18:45;13.10;;;7.63;;
71513;SDS011;59335;46.652;21.272;2024-02-26T00:21:52;13.32;;;7.50;;
71513;SDS011;59335;46.652;21.272;2024-02-26T00:24:58;12.95;;;7.15;;
71513;SDS011;59335;46.652;21.272;2024-02-26T00:28:01;13.15;;;7.07;;
71513;SDS011;59335;46.652;21.272;2024-02-26T00:31:03;12.15;;;7.35;;
71513;SDS011;59335;46.652;21.272;2024-02-26T00:34:07;13.67;;;7.13;;
71513;SDS011;59335;46.652;21.272;2024-02-26T00:37:11;10.85;;;6.70;;
71513;SDS011;59335;46.652;21.272;2024-02-26T00:40:14;12.77;;;6.60;;
71513;SDS011;59335;46.652;21.272;2024-02-26T00:43:17;11.82;;;6.85;;
71513;SDS011;59335;46.652;21.272;2024-02-26T00:46:20;10.65;;;6.45;;
71513;SDS011;59335;46.652;21.272;2024-02-26T00:49:24;14.13;;;7.23;;
71513;SDS011;59335;46.652;21.272;2024-02-26T00:52:27;13.70;;;6.82;;
71513;SDS011;59335;46.652;21.272;2024-02-26T00:55:29;13.07;;;6.82;;
71513;SDS011;59335;46.652;21.272;2024-02-26T00:58:32;12.27;;;6.78;;
71513;SDS011;59335;46.652;21.272;2024-02-26T01:01:35;12.52;;;6.38;;
71513;SDS011;59335;46.652;21.272;2024-02-26T01:04:38;12.33;;;6.97;;
71513;SDS011;59335;46.652;21.272;2024-02-26T01:07:43;11.90;;;7.15;;
71513;SDS011;59335;46.652;21.272;2024-02-26T01:10:47;11.40;;;6.95;;
71513;SDS011;59335;46.652;21.272;2024-02-26T01:13:50;11.93;;;6.75;;
71513;SDS011;59335;46.652;21.272;2024-02-26T01:16:59;12.45;;;7.00;;
71513;SDS011;59335;46.652;21.272;2024-02-26T01:20:04;13.53;;;6.90;;
71513;SDS011;59335;46.652;21.272;2024-02-26T01:23:07;13.48;;;7.15;;
71513;SDS011;59335;46.652;21.272;2024-02-26T01:26:10;12.27;;;7.13;;
71513;SDS011;59335;46.652;21.272;2024-02-26T01:29:14;15.35;;;7.25;;
71513;SDS011;59335;46.652;21.272;2024-02-26T01:32:17;11.50;;;7.18;;
71513;SDS011;59335;46.652;21.272;2024-02-26T01:35:20;12.80;;;6.90;;
71513;SDS011;59335;46.652;21.272;2024-02-26T01:38:23;13.98;;;7.75;;
71513;SDS011;59335;46.652;21.272;2024-02-26T01:41:26;11.40;;;6.82;;
71513;SDS011;59335;46.652;21.272;2024-02-26T01:44:28;12.10;;;7.40;;
71513;SDS011;59335;46.652;21.272;2024-02-26T01:47:31;10.80;;;6.82;;
71513;SDS011;59335;46.652;21.272;2024-02-26T01:50:34;12.03;;;7.23;;
71513;SDS011;59335;46.652;21.272;2024-02-26T01:53:38;13.23;;;7.15;;
71513;SDS011;59335;46.652;21.272;2024-02-26T01:56:42;12.10;;;7.20;;
71513;SDS011;59335;46.652;21.272;2024-02-26T01:59:45;13.40;;;7.43;;
71513;SDS011;59335;46.652;21.272;2024-02-26T02:02:49;12.07;;;7.20;;
71513;SDS011;59335;46.652;21.272;2024-02-26T02:05:52;10.83;;;6.83;;
71513;SDS011;59335;46.652;21.272;2024-02-26T02:08:56;11.52;;;6.80;;
71513;SDS011;59335;46.652;21.272;2024-02-26T02:11:59;12.75;;;7.57;;
71513;SDS011;59335;46.652;21.272;2024-02-26T02:15:03;11.00;;;6.60;;
71513;SDS011;59335;46.652;21.272;2024-02-26T02:18:06;13.98;;;7.28;;
71513;SDS011;59335;46.652;21.272;2024-02-26T02:21:09;13.37;;;7.60;;
71513;SDS011;59335;46.652;21.272;2024-02-26T02:24:12;12.48;;;7.10;;
71513;SDS011;59335;46.652;21.272;2024-02-26T02:27:15;11.20;;;6.65;;
71513;SDS011;59335;46.652;21.272;2024-02-26T02:30:19;11.05;;;6.85;;
71513;SDS011;59335;46.652;21.272;2024-02-26T02:33:23;11.60;;;6.70;;
71513;SDS011;59335;46.652;21.272;2024-02-26T02:36:27;12.37;;;6.80;;
71513;SDS011;59335;46.652;21.272;2024-02-26T02:39:33;12.32;;;6.82;;
71513;SDS011;59335;46.652;21.272;2024-02-26T02:42:36;12.20;;;6.65;;
71513;SDS011;59335;46.652;21.272;2024-02-26T02:45:39;11.85;;;6.95;;
71513;SDS011;59335;46.652;21.272;2024-02-26T02:48:42;11.80;;;6.55;;
71513;SDS011;59335;46.652;21.272;2024-02-26T02:51:46;11.17;;;6.97;;
71513;SDS011;59335;46.652;21.272;2024-02-26T02:54:49;12.30;;;7.07;;
71513;SDS011;59335;46.652;21.272;2024-02-26T02:57:52;13.40;;;6.75;;
71513;SDS011;59335;46.652;21.272;2024-02-26T03:00:55;11.88;;;6.80;;
71513;SDS011;59335;46.652;21.272;2024-02-26T03:03:58;12.13;;;6.65;;
71513;SDS011;59335;46.652;21.272;2024-02-26T03:07:01;13.17;;;7.40;;
71513;SDS011;59335;46.652;21.272;2024-02-26T03:10:04;12.88;;;7.30;;
71513;SDS011;59335;46.652;21.272;2024-02-26T03:13:10;12.93;;;7.40;;
71513;SDS011;59335;46.652;21.272;2024-02-26T03:16:13;13.07;;;6.15;;
71513;SDS011;59335;46.652;21.272;2024-02-26T03:19:16;11.77;;;6.25;;
71513;SDS011;59335;46.652;21.272;2024-02-26T03:22:20;13.70;;;6.93;;
71513;SDS011;59335;46.652;21.272;2024-02-26T03:25:23;12.80;;;6.80;;
71513;SDS011;59335;46.652;21.272;2024-02-26T03:28:26;11.52;;;6.53;;
71513;SDS011;59335;46.652;21.272;2024-02-26T03:31:29;13.13;;;6.35;;
71513;SDS011;59335;46.652;21.272;2024-02-26T03:34:32;11.40;;;6.20;;
71513;SDS011;59335;46.652;21.272;2024-02-26T03:37:39;11.63;;;6.50;;
71513;SDS011;59335;46.652;21.272;2024-02-26T03:40:42;11.15;;;6.45;;
71513;SDS011;59335;46.652;21.272;2024-02-26T03:43:45;12.95;;;6.20;;
71513;SDS011;59335;46.652;21.272;2024-02-26T03:46:48;11.60;;;6.18;;
71513;SDS011;59335;46.652;21.272;2024-02-26T03:49:50;11.70;;;6.05;;
71513;SDS011;59335;46.652;21.272;2024-02-26T03:52:53;12.77;;;6.20;;
71513;SDS011;59335;46.652;21.272;2024-02-26T03:55:56;12.30;;;5.97;;
71513;SDS011;59335;46.652;21.272;2024-02-26T03:58:59;11.30;;;6.43;;
71513;SDS011;59335;46.652;21.272;2024-02-26T04:02:05;10.35;;;6.00;;
71513;SDS011;59335;46.652;21.272;2024-02-26T04:05:10;10.95;;;6.47;;
71513;SDS011;59335;46.652;21.272;2024-02-26T04:08:16;11.47;;;6.60;;
71513;SDS011;59335;46.652;21.272;2024-02-26T04:11:19;12.43;;;5.97;;
71513;SDS011;59335;46.652;21.272;2024-02-26T04:14:23;10.07;;;6.07;;
71513;SDS011;59335;46.652;21.272;2024-02-26T04:17:26;10.95;;;6.20;;
71513;SDS011;59335;46.652;21.272;2024-02-26T04:20:28;10.70;;;6.22;;
71513;SDS011;59335;46.652;21.272;2024-02-26T04:23:32;11.83;;;6.10;;
71513;SDS011;59335;46.652;21.272;2024-02-26T04:26:35;12.43;;;5.95;;
71513;SDS011;59335;46.652;21.272;2024-02-26T04:29:39;9.70;;;5.57;;
71513;SDS011;59335;46.652;21.272;2024-02-26T04:32:42;11.52;;;5.97;;
71513;SDS011;59335;46.652;21.272;2024-02-26T04:35:45;11.10;;;5.93;;
71513;SDS011;59335;46.652;21.272;2024-02-26T04:38:48;10.20;;;5.97;;
71513;SDS011;59335;46.652;21.272;2024-02-26T04:41:52;12.35;;;6.35;;
71513;SDS011;59335;46.652;21.272;2024-02-26T04:44:55;10.23;;;5.72;;
71513;SDS011;59335;46.652;21.272;2024-02-26T04:47:59;9.77;;;5.90;;
71513;SDS011;59335;46.652;21.272;2024-02-26T04:51:02;10.35;;;5.72;;
71513;SDS011;59335;46.652;21.272;2024-02-26T04:54:05;9.73;;;5.70;;
71513;SDS011;59335;46.652;21.272;2024-02-26T04:57:08;9.18;;;5.40;;
71513;SDS011;59335;46.652;21.272;2024-02-26T05:00:12;9.95;;;5.50;;
71513;SDS011;59335;46.652;21.272;2024-02-26T05:03:15;9.60;;;5.43;;
71513;SDS011;59335;46.652;21.272;2024-02-26T05:06:19;9.68;;;5.40;;
71513;SDS011;59335;46.652;21.272;2024-02-26T05:09:23;11.53;;;6.17;;
71513;SDS011;59335;46.652;21.272;2024-02-26T05:12:29;9.30;;;5.22;;
71513;SDS011;59335;46.652;21.272;2024-02-26T05:15:31;9.98;;;5.60;;
71513;SDS011;59335;46.652;21.272;2024-02-26T05:18:35;11.68;;;5.90;;
71513;SDS011;59335;46.652;21.272;2024-02-26T05:21:39;11.18;;;5.45;;
71513;SDS011;59335;46.652;21.272;2024-02-26T05:24:42;9.57;;;5.90;;
71513;SDS011;59335;46.652;21.272;2024-02-26T05:27:45;11.02;;;5.50;;
71513;SDS011;59335;46.652;21.272;2024-02-26T05:30:48;11.05;;;4.95;;
71513;SDS011;59335;46.652;21.272;2024-02-26T05:33:51;10.60;;;5.25;;
71513;SDS011;59335;46.652;21.272;2024-02-26T05:36:55;8.30;;;5.22;;
71513;SDS011;59335;46.652;21.272;2024-02-26T05:39:58;9.40;;;5.30;;
71513;SDS011;59335;46.652;21.272;2024-02-26T05:43:02;9.80;;;5.43;;
71513;SDS011;59335;46.652;21.272;2024-02-26T05:46:05;11.05;;;5.45;;
71513;SDS011;59335;46.652;21.272;2024-02-26T05:49:10;10.15;;;5.00;;
71513;SDS011;59335;46.652;21.272;2024-02-26T05:52:12;8.60;;;5.05;;
71513;SDS011;59335;46.652;21.272;2024-02-26T05:55:15;10.27;;;5.20;;
71513;SDS011;59335;46.652;21.272;2024-02-26T05:58:18;11.30;;;5.13;;
71513;SDS011;59335;46.652;21.272;2024-02-26T06:01:21;8.82;;;4.75;;
71513;SDS011;59335;46.652;21.272;2024-02-26T06:04:24;11.95;;;5.47;;
71513;SDS011;59335;46.652;21.272;2024-02-26T06:07:28;8.38;;;5.00;;
71513;SDS011;59335;46.652;21.272;2024-02-26T06:10:31;9.40;;;4.63;;
71513;SDS011;59335;46.652;21.272;2024-02-26T06:13:34;9.93;;;5.13;;
71513;SDS011;59335;46.652;21.272;2024-02-26T06:16:37;10.05;;;5.07;;
71513;SDS011;59335;46.652;21.272;2024-02-26T06:19:49;8.65;;;4.72;;
71513;SDS011;59335;46.652;21.272;2024-02-26T06:22:52;9.73;;;5.30;;
71513;SDS011;59335;46.652;21.272;2024-02-26T06:25:55;10.33;;;4.73;;
71513;SDS011;59335;46.652;21.272;2024-02-26T06:28:59;10.25;;;4.95;;
71513;SDS011;59335;46.652;21.272;2024-02-26T06:32:02;7.82;;;4.40;;
71513;SDS011;59335;46.652;21.272;2024-02-26T06:35:05;9.60;;;5.00;;
71513;SDS011;59335;46.652;21.272;2024-02-26T06:38:13;9.88;;;5.07;;
71513;SDS011;59335;46.652;21.272;2024-02-26T06:41:17;10.30;;;5.00;;
71513;SDS011;59335;46.652;21.272;2024-02-26T06:44:20;10.48;;;5.50;;
71513;SDS011;59335;46.652;21.272;2024-02-26T06:47:23;10.95;;;4.55;;
71513;SDS011;59335;46.652;21.272;2024-02-26T06:50:30;8.88;;;4.60;;
71513;SDS011;59335;46.652;21.272;2024-02-26T06:53:40;9.35;;;4.63;;
71513;SDS011;59335;46.652;21.272;2024-02-26T06:56:44;10.33;;;4.50;;
71513;SDS011;59335;46.652;21.272;2024-02-26T06:59:53;10.88;;;4.82;;
71513;SDS011;59335;46.652;21.272;2024-02-26T07:02:56;11.98;;;4.97;;
71513;SDS011;59335;46.652;21.272;2024-02-26T07:06:11;9.68;;;4.90;;
71513;SDS011;59335;46.652;21.272;2024-02-26T07:09:21;10.65;;;4.78;;
71513;SDS011;59335;46.652;21.272;2024-02-26T07:12:26;10.17;;;4.90;;
71513;SDS011;59335;46.652;21.272;2024-02-26T07:15:32;8.23;;;4.50;;
71513;SDS011;59335;46.652;21.272;2024-02-26T07:18:36;8.98;;;4.57;;
71513;SDS011;59335;46.652;21.272;2024-02-26T07:21:41;7.70;;;4.70;;
71513;SDS011;59335;46.652;21.272;2024-02-26T07:24:45;7.72;;;4.40;;
71513;SDS011;59335;46.652;21.272;2024-02-26T07:27:50;7.83;;;4.23;;
71513;SDS011;59335;46.652;21.272;2024-02-26T07:30:54;10.82;;;4.43;;
71513;SDS011;59335;46.652;21.272;2024-02-26T07:33:59;7.75;;;4.00;;
71513;SDS011;59335;46.652;21.272;2024-02-26T07:37:02;7.75;;;4.30;;
71513;SDS011;59335;46.652;21.272;2024-02-26T07:40:06;9.95;;;4.50;;
71513;SDS011;59335;46.652;21.272;2024-02-26T07:43:11;9.27;;;4.40;;
71513;SDS011;59335;46.652;21.272;2024-02-26T07:46:14;8.80;;;4.28;;
71513;SDS011;59335;46.652;21.272;2024-02-26T07:49:30;7.60;;;4.30;;
71513;SDS011;59335;46.652;21.272;2024-02-26T07:53:03;9.13;;;4.30;;
71513;SDS011;59335;46.652;21.272;2024-02-26T07:56:07;9.25;;;4.35;;
71513;SDS011;59335;46.652;21.272;2024-02-26T07:59:11;8.67;;;4.30;;
71513;SDS011;59335;46.652;21.272;2024-02-26T08:02:14;9.70;;;4.35;;
71513;SDS011;59335;46.652;21.272;2024-02-26T08:05:18;15.35;;;4.28;;
71513;SDS011;59335;46.652;21.272;2024-02-26T08:08:22;10.90;;;4.35;;
71513;SDS011;59335;46.652;21.272;2024-02-26T08:11:25;7.80;;;3.70;;
71513;SDS011;59335;46.652;21.272;2024-02-26T08:14:28;12.70;;;4.40;;
71513;SDS011;59335;46.652;21.272;2024-02-26T08:17:31;8.40;;;3.83;;
71513;SDS011;59335;46.652;21.272;2024-02-26T08:20:38;9.02;;;4.32;;
71513;SDS011;59335;46.652;21.272;2024-02-26T08:23:44;9.20;;;4.05;;
71513;SDS011;59335;46.652;21.272;2024-02-26T08:26:47;9.52;;;4.18;;
71513;SDS011;59335;46.652;21.272;2024-02-26T08:29:52;7.30;;;3.83;;
71513;SDS011;59335;46.652;21.272;2024-02-26T08:32:57;11.55;;;4.20;;
71513;SDS011;59335;46.652;21.272;2024-02-26T08:36:30;8.60;;;4.13;;
71513;SDS011;59335;46.652;21.272;2024-02-26T08:39:37;9.35;;;3.80;;
71513;SDS011;59335;46.652;21.272;2024-02-26T08:42:48;7.00;;;4.00;;
71513;SDS011;59335;46.652;21.272;2024-02-26T08:45:52;9.30;;;3.67;;
71513;SDS011;59335;46.652;21.272;2024-02-26T08:48:56;9.63;;;3.67;;
71513;SDS011;59335;46.652;21.272;2024-02-26T08:51:59;9.73;;;4.10;;
71513;SDS011;59335;46.652;21.272;2024-02-26T08:55:04;12.73;;;4.07;;
71513;SDS011;59335;46.652;21.272;2024-02-26T08:58:09;10.05;;;4.15;;
71513;SDS011;59335;46.652;21.272;2024-02-26T09:01:13;11.47;;;4.20;;
71513;SDS011;59335;46.652;21.272;2024-02-26T09:04:16;11.13;;;4.03;;
71513;SDS011;59335;46.652;21.272;2024-02-26T09:07:21;9.90;;;4.10;;
71513;SDS011;59335;46.652;21.272;2024-02-26T09:10:24;9.00;;;4.07;;
71513;SDS011;59335;46.652;21.272;2024-02-26T09:13:28;12.50;;;4.32;;
71513;SDS011;59335;46.652;21.272;2024-02-26T09:16:31;8.53;;;3.90;;
71513;SDS011;59335;46.652;21.272;2024-02-26T09:19:35;9.32;;;3.83;;
71513;SDS011;59335;46.652;21.272;2024-02-26T09:22:41;11.48;;;4.18;;
71513;SDS011;59335;46.652;21.272;2024-02-26T09:25:46;8.52;;;3.90;;
71513;SDS011;59335;46.652;21.272;2024-02-26T09:28:49;9.63;;;4.30;;
71513;SDS011;59335;46.652;21.272;2024-02-26T09:31:55;8.60;;;3.80;;
71513;SDS011;59335;46.652;21.272;2024-02-26T09:35:05;10.10;;;4.40;;
71513;SDS011;59335;46.652;21.272;2024-02-26T09:38:11;9.23;;;3.92;;
71513;SDS011;59335;46.652;21.272;2024-02-26T09:41:16;8.90;;;3.70;;
71513;SDS011;59335;46.652;21.272;2024-02-26T09:44:22;8.45;;;3.65;;
71513;SDS011;59335;46.652;21.272;2024-02-26T09:47:39;8.37;;;4.10;;
71513;SDS011;59335;46.652;21.272;2024-02-26T09:50:48;9.00;;;4.50;;
71513;SDS011;59335;46.652;21.272;2024-02-26T09:54:10;8.52;;;3.92;;
71513;SDS011;59335;46.652;21.272;2024-02-26T09:57:16;8.65;;;3.80;;
71513;SDS011;59335;46.652;21.272;2024-02-26T10:00:21;10.05;;;4.20;;
71513;SDS011;59335;46.652;21.272;2024-02-26T10:03:30;14.77;;;4.50;;
71513;SDS011;59335;46.652;21.272;2024-02-26T10:06:37;11.90;;;3.90;;
71513;SDS011;59335;46.652;21.272;2024-02-26T10:09:43;10.10;;;4.05;;
71513;SDS011;59335;46.652;21.272;2024-02-26T10:12:48;11.52;;;4.20;;
71513;SDS011;59335;46.652;21.272;2024-02-26T10:16:01;12.65;;;4.10;;
71513;SDS011;59335;46.652;21.272;2024-02-26T10:19:06;10.27;;;4.50;;
71513;SDS011;59335;46.652;21.272;2024-02-26T10:22:09;11.13;;;4.85;;
71513;SDS011;59335;46.652;21.272;2024-02-26T10:25:12;11.15;;;4.30;;
71513;SDS011;59335;46.652;21.272;2024-02-26T10:28:16;10.45;;;4.20;;
71513;SDS011;59335;46.652;21.272;2024-02-26T10:31:19;12.57;;;4.10;;
71513;SDS011;59335;46.652;21.272;2024-02-26T10:34:22;11.43;;;3.80;;
71513;SDS011;59335;46.652;21.272;2024-02-26T10:37:34;9.88;;;4.30;;
71513;SDS011;59335;46.652;21.272;2024-02-26T10:40:38;14.75;;;4.55;;
71513;SDS011;59335;46.652;21.272;2024-02-26T10:43:42;10.88;;;3.80;;
71513;SDS011;59335;46.652;21.272;2024-02-26T10:46:46;9.90;;;3.90;;
71513;SDS011;59335;46.652;21.272;2024-02-26T10:49:55;8.70;;;4.13;;
71513;SDS011;59335;46.652;21.272;2024-02-26T10:52:59;11.30;;;3.97;;
71513;SDS011;59335;46.652;21.272;2024-02-26T10:56:04;13.68;;;4.20;;
71513;SDS011;59335;46.652;21.272;2024-02-26T10:59:09;12.60;;;4.25;;
71513;SDS011;59335;46.652;21.272;2024-02-26T11:02:15;13.95;;;4.28;;
71513;SDS011;59335;46.652;21.272;2024-02-26T11:05:18;16.00;;;4.60;;
71513;SDS011;59335;46.652;21.272;2024-02-26T11:08:23;13.10;;;4.50;;
71513;SDS011;59335;46.652;21.272;2024-02-26T11:11:28;12.27;;;4.30;;
71513;SDS011;59335;46.652;21.272;2024-02-26T11:14:34;12.43;;;4.13;;
71513;SDS011;59335;46.652;21.272;2024-02-26T11:17:38;14.75;;;4.43;;
71513;SDS011;59335;46.652;21.272;2024-02-26T11:20:45;8.67;;;4.00;;
71513;SDS011;59335;46.652;21.272;2024-02-26T11:23:51;12.60;;;4.63;;
71513;SDS011;59335;46.652;21.272;2024-02-26T11:26:55;10.98;;;3.83;;
71513;SDS011;59335;46.652;21.272;2024-02-26T11:30:02;11.32;;;4.13;;
71513;SDS011;59335;46.652;21.272;2024-02-26T11:33:21;12.27;;;4.40;;
71513;SDS011;59335;46.652;21.272;2024-02-26T11:36:26;13.87;;;4.47;;
71513;SDS011;59335;46.652;21.272;2024-02-26T11:39:29;10.55;;;4.25;;
71513;SDS011;59335;46.652;21.272;2024-02-26T11:42:45;10.93;;;4.03;;
71513;SDS011;59335;46.652;21.272;2024-02-26T11:45:50;13.73;;;4.40;;
71513;SDS011;59335;46.652;21.272;2024-02-26T11:48:58;11.48;;;4.55;;
71513;SDS011;59335;46.652;21.272;2024-02-26T11:52:10;9.57;;;4.63;;
71513;SDS011;59335;46.652;21.272;2024-02-26T11:55:19;9.95;;;4.30;;
71513;SDS011;59335;46.652;21.272;2024-02-26T11:58:34;15.73;;;4.53;;
71513;SDS011;59335;46.652;21.272;2024-02-26T12:01:40;8.52;;;3.40;;
71513;SDS011;59335;46.652;21.272;2024-02-26T12:04:50;10.75;;;3.60;;
71513;SDS011;59335;46.652;21.272;2024-02-26T12:08:01;9.27;;;3.63;;
71513;SDS011;59335;46.652;21.272;2024-02-26T12:11:16;8.20;;;3.58;;
71513;SDS011;59335;46.652;21.272;2024-02-26T12:14:24;10.60;;;3.90;;
71513;SDS011;59335;46.652;21.272;2024-02-26T12:17:28;10.48;;;3.90;;
71513;SDS011;59335;46.652;21.272;2024-02-26T12:20:34;10.23;;;3.75;;
71513;SDS011;59335;46.652;21.272;2024-02-26T12:23:37;10.07;;;3.50;;
71513;SDS011;59335;46.652;21.272;2024-02-26T12:26:42;8.43;;;3.70;;
71513;SDS011;59335;46.652;21.272;2024-02-26T12:29:45;9.00;;;3.70;;
71513;SDS011;59335;46.652;21.272;2024-02-26T12:32:50;12.55;;;3.83;;
71513;SDS011;59335;46.652;21.272;2024-02-26T12:35:55;7.68;;;3.53;;
71513;SDS011;59335;46.652;21.272;2024-02-26T12:39:01;8.87;;;3.80;;
71513;SDS011;59335;46.652;21.272;2024-02-26T12:42:10;8.70;;;3.65;;
71513;SDS011;59335;46.652;21.272;2024-02-26T12:45:13;9.52;;;3.70;;
71513;SDS011;59335;46.652;21.272;2024-02-26T12:48:18;9.05;;;3.50;;
71513;SDS011;59335;46.652;21.272;2024-02-26T12:51:23;11.65;;;3.47;;
71513;SDS011;59335;46.652;21.272;2024-02-26T12:54:30;11.77;;;3.70;;
71513;SDS011;59335;46.652;21.272;2024-02-26T12:57:37;11.43;;;4.28;;
71513;SDS011;59335;46.652;21.272;2024-02-26T13:00:41;12.90;;;3.88;;
71513;SDS011;59335;46.652;21.272;2024-02-26T13:03:49;8.80;;;3.75;;
71513;SDS011;59335;46.652;21.272;2024-02-26T13:06:55;10.00;;;4.10;;
71513;SDS011;59335;46.652;21.272;2024-02-26T13:10:05;11.63;;;3.80;;
71513;SDS011;59335;46.652;21.272;2024-02-26T13:13:11;9.73;;;3.75;;
71513;SDS011;59335;46.652;21.272;2024-02-26T13:16:15;9.95;;;3.88;;
71513;SDS011;59335;46.652;21.272;2024-02-26T13:19:19;14.50;;;4.25;;
71513;SDS011;59335;46.652;21.272;2024-02-26T13:22:23;10.95;;;4.03;;
71513;SDS011;59335;46.652;21.272;2024-02-26T13:25:29;14.47;;;4.10;;
71513;SDS011;59335;46.652;21.272;2024-02-26T13:28:32;13.93;;;4.28;;
71513;SDS011;59335;46.652;21.272;2024-02-26T13:31:41;13.60;;;4.00;;
71513;SDS011;59335;46.652;21.272;2024-02-26T13:34:46;11.82;;;3.95;;
71513;SDS011;59335;46.652;21.272;2024-02-26T13:37:49;15.30;;;4.40;;
71513;SDS011;59335;46.652;21.272;2024-02-26T13:40:52;10.00;;;3.83;;
71513;SDS011;59335;46.652;21.272;2024-02-26T13:43:56;11.43;;;3.85;;
71513;SDS011;59335;46.652;21.272;2024-02-26T13:47:03;11.60;;;3.83;;
71513;SDS011;59335;46.652;21.272;2024-02-26T13:50:07;10.93;;;3.80;;
71513;SDS011;59335;46.652;21.272;2024-02-26T13:53:11;13.60;;;4.43;;
71513;SDS011;59335;46.652;21.272;2024-02-26T13:56:15;14.37;;;3.93;;
71513;SDS011;59335;46.652;21.272;2024-02-26T13:59:22;11.30;;;4.43;;
71513;SDS011;59335;46.652;21.272;2024-02-26T14:02:26;10.63;;;4.30;;
71513;SDS011;59335;46.652;21.272;2024-02-26T14:05:29;9.02;;;4.15;;
71513;SDS011;59335;46.652;21.272;2024-02-26T14:08:33;13.82;;;4.55;;
71513;SDS011;59335;46.652;21.272;2024-02-26T14:11:37;9.10;;;4.10;;
71513;SDS011;59335;46.652;21.272;2024-02-26T14:14:42;15.27;;;4.40;;
71513;SDS011;59335;46.652;21.272;2024-02-26T14:17:46;10.35;;;4.13;;
71513;SDS011;59335;46.652;21.272;2024-02-26T14:20:58;12.98;;;4.55;;
71513;SDS011;59335;46.652;21.272;2024-02-26T14:24:02;13.50;;;4.50;;
71513;SDS011;59335;46.652;21.272;2024-02-26T14:27:07;11.27;;;4.20;;
71513;SDS011;59335;46.652;21.272;2024-02-26T14:30:13;9.00;;;3.70;;
71513;SDS011;59335;46.652;21.272;2024-02-26T14:33:16;10.90;;;4.38;;
71513;SDS011;59335;46.652;21.272;2024-02-26T14:36:21;14.55;;;4.13;;
71513;SDS011;59335;46.652;21.272;2024-02-26T14:39:25;14.05;;;4.13;;
71513;SDS011;59335;46.652;21.272;2024-02-26T14:42:28;13.83;;;4.40;;
71513;SDS011;59335;46.652;21.272;2024-02-26T14:45:32;12.45;;;3.95;;
71513;SDS011;59335;46.652;21.272;2024-02-26T14:48:36;13.85;;;4.32;;
71513;SDS011;59335;46.652;21.272;2024-02-26T14:51:40;15.02;;;4.35;;
71513;SDS011;59335;46.652;21.272;2024-02-26T14:58:18;15.33;;;4.20;;
71513;SDS011;59335;46.652;21.272;2024-02-26T15:01:21;15.45;;;4.43;;
71513;SDS011;59335;46.652;21.272;2024-02-26T15:04:27;12.35;;;4.25;;
71513;SDS011;59335;46.652;21.272;2024-02-26T15:07:29;13.77;;;4.68;;
71513;SDS011;59335;46.652;21.272;2024-02-26T15:10:32;11.25;;;4.05;;
71513;SDS011;59335;46.652;21.272;2024-02-26T15:13:35;13.47;;;4.47;;
71513;SDS011;59335;46.652;21.272;2024-02-26T15:16:38;11.68;;;3.90;;
71513;SDS011;59335;46.652;21.272;2024-02-26T15:19:42;12.48;;;3.70;;
71513;SDS011;59335;46.652;21.272;2024-02-26T15:22:45;13.18;;;4.10;;
71513;SDS011;59335;46.652;21.272;2024-02-26T15:25:49;9.65;;;3.95;;
71513;SDS011;59335;46.652;21.272;2024-02-26T15:28:53;11.23;;;4.17;;
71513;SDS011;59335;46.652;21.272;2024-02-26T15:31:56;9.52;;;3.92;;
71513;SDS011;59335;46.652;21.272;2024-02-26T15:34:58;13.23;;;4.50;;
71513;SDS011;59335;46.652;21.272;2024-02-26T15:38:03;14.48;;;4.00;;
71513;SDS011;59335;46.652;21.272;2024-02-26T15:41:12;8.90;;;4.03;;
71513;SDS011;59335;46.652;21.272;2024-02-26T15:44:16;10.83;;;4.20;;
71513;SDS011;59335;46.652;21.272;2024-02-26T15:47:19;12.85;;;3.95;;
71513;SDS011;59335;46.652;21.272;2024-02-26T15:50:22;10.80;;;4.75;;
71513;SDS011;59335;46.652;21.272;2024-02-26T15:53:25;17.85;;;4.50;;
71513;SDS011;59335;46.652;21.272;2024-02-26T15:56:28;9.30;;;4.20;;
71513;SDS011;59335;46.652;21.272;2024-02-26T15:59:31;10.23;;;4.03;;
71513;SDS011;59335;46.652;21.272;2024-02-26T16:02:34;12.13;;;4.30;;
71513;SDS011;59335;46.652;21.272;2024-02-26T16:05:37;12.25;;;4.05;;
71513;SDS011;59335;46.652;21.272;2024-02-26T16:08:41;10.90;;;4.30;;
71513;SDS011;59335;46.652;21.272;2024-02-26T16:11:44;13.50;;;4.23;;
71513;SDS011;59335;46.652;21.272;2024-02-26T16:14:50;13.40;;;4.05;;
71513;SDS011;59335;46.652;21.272;2024-02-26T16:17:53;11.88;;;4.22;;
71513;SDS011;59335;46.652;21.272;2024-02-26T16:20:58;11.27;;;4.15;;
71513;SDS011;59335;46.652;21.272;2024-02-26T16:24:02;9.88;;;4.00;;
71513;SDS011;59335;46.652;21.272;2024-02-26T16:27:05;11.63;;;4.00;;
71513;SDS011;59335;46.652;21.272;2024-02-26T16:30:09;14.20;;;4.30;;
71513;SDS011;59335;46.652;21.272;2024-02-26T16:33:14;14.48;;;4.15;;
71513;SDS011;59335;46.652;21.272;2024-02-26T16:36:17;10.00;;;4.20;;
71513;SDS011;59335;46.652;21.272;2024-02-26T16:39:20;11.05;;;3.92;;
71513;SDS011;59335;46.652;21.272;2024-02-26T16:42:23;10.63;;;3.50;;
71513;SDS011;59335;46.652;21.272;2024-02-26T16:45:26;9.77;;;3.63;;
71513;SDS011;59335;46.652;21.272;2024-02-26T16:48:33;11.90;;;4.00;;
71513;SDS011;59335;46.652;21.272;2024-02-26T16:51:38;9.43;;;3.50;;
71513;SDS011;59335;46.652;21.272;2024-02-26T16:54:43;12.95;;;4.35;;
71513;SDS011;59335;46.652;21.272;2024-02-26T16:57:46;13.37;;;3.93;;
71513;SDS011;59335;46.652;21.272;2024-02-26T17:00:49;13.48;;;3.85;;
71513;SDS011;59335;46.652;21.272;2024-02-26T17:03:52;12.48;;;3.78;;
71513;SDS011;59335;46.652;21.272;2024-02-26T17:06:55;10.57;;;4.03;;
71513;SDS011;59335;46.652;21.272;2024-02-26T17:09:58;10.55;;;4.47;;
71513;SDS011;59335;46.652;21.272;2024-02-26T17:13:01;10.57;;;3.70;;
71513;SDS011;59335;46.652;21.272;2024-02-26T17:16:05;9.88;;;4.18;;
71513;SDS011;59335;46.652;21.272;2024-02-26T17:19:08;10.40;;;3.92;;
71513;SDS011;59335;46.652;21.272;2024-02-26T17:22:11;11.80;;;4.22;;
71513;SDS011;59335;46.652;21.272;2024-02-26T17:25:14;12.98;;;3.90;;
71513;SDS011;59335;46.652;21.272;2024-02-26T17:28:18;13.27;;;3.43;;
71513;SDS011;59335;46.652;21.272;2024-02-26T17:31:21;10.50;;;3.70;;
71513;SDS011;59335;46.652;21.272;2024-02-26T17:34:24;11.35;;;3.60;;
71513;SDS011;59335;46.652;21.272;2024-02-26T17:37:26;10.63;;;3.83;;
71513;SDS011;59335;46.652;21.272;2024-02-26T17:40:30;9.10;;;3.80;;
71513;SDS011;59335;46.652;21.272;2024-02-26T17:43:34;12.23;;;3.90;;
71513;SDS011;59335;46.652;21.272;2024-02-26T17:46:38;10.13;;;3.50;;
71513;SDS011;59335;46.652;21.272;2024-02-26T17:49:41;10.38;;;3.88;;
71513;SDS011;59335;46.652;21.272;2024-02-26T17:52:44;11.73;;;4.28;;
71513;SDS011;59335;46.652;21.272;2024-02-26T17:55:47;10.25;;;3.95;;
71513;SDS011;59335;46.652;21.272;2024-02-26T17:58:54;11.83;;;4.10;;
71513;SDS011;59335;46.652;21.272;2024-02-26T18:01:57;8.65;;;3.78;;
71513;SDS011;59335;46.652;21.272;2024-02-26T18:05:00;8.82;;;4.30;;
71513;SDS011;59335;46.652;21.272;2024-02-26T18:08:03;12.10;;;4.05;;